Flight Track Log - Related Links

Times and Time Zones

All times are in EDT time to prevent confusion due to time zone crossing. See the ASQ4343 flight status page for this flight to view local times or setup timezone preferences in your user account.

Time Position Orientation Groundspeed Altitude Reporting Facility
EDT Latitude Longitude Course Direction KTS MPH feet Rate Location/Type
Wed 02:59:10 PM 29.9772 -95.3056 337° Northwest 181 208 600  Level Houston Center
Wed 02:59:35 PM 29.9858 -95.2853 64° Northeast 164 189 1,400 1,744 Climbing Houston Center
Wed 03:00:36 PM 30.0489 -95.2872 358° North 287 330 3,100 1,935 Climbing Houston Center
Wed 03:01:08 PM 30.0814 -95.2961 347° North 271 312 4,400 2,681 Climbing Houston Center
Wed 03:02:00 PM 30.3895 -95.5719 334° Northwest  Level FlightAware Approximate
Wed 03:02:10 PM 30.1514 -95.3406 331° Northwest 288 331 7,300  Level Houston Center
Wed 03:03:00 PM 30.4923 -95.6291 334° Northwest  Level FlightAware Approximate
Wed 03:03:12 PM 30.2178 -95.3939 325° Northwest 292 336 10,100  Level Houston Center
Wed 03:04:00 PM 30.5968 -95.6817 337° Northwest  Level FlightAware Approximate
Wed 03:04:14 PM 30.3075 -95.4667 325° Northwest 332 382 11,300  Level Houston Center
Wed 03:05:16 PM 30.3889 -95.5344 324° Northwest 362 417 13,100 1,645 Climbing Houston Center
Wed 03:06:18 PM 30.4736 -95.6022 325° Northwest 367 422 14,700 1,500 Climbing Houston Center
Wed 03:07:20 PM 30.5622 -95.6703 327° Northwest 379 436 16,200 1,452 Climbing Houston Center
Wed 03:08:22 PM 30.6636 -95.7203 337° Northwest 394 453 17,700 1,403 Climbing Houston Center
Wed 03:09:24 PM 30.7714 -95.7781 335° Northwest 397 457 19,100 1,403 Climbing Houston Center
Wed 03:10:26 PM 30.8744 -95.8336 335° Northwest 403 464 20,600 1,500 Climbing Houston Center
Wed 03:11:28 PM 30.9786 -95.8897 335° Northwest 408 470 22,200 1,790 Climbing Houston Center
Wed 03:12:30 PM 31.1022 -95.9547 336° Northwest 404 465 24,300 1,737 Climbing Houston Center
Wed 03:13:22 PM 31.1969 -95.9853 345° North 405 466 25,500 1,446 Climbing Fort Worth Center
Wed 03:14:22 PM 31.3100 -96.0103 349° North 405 466 27,000 1,500 Climbing Fort Worth Center
Wed 03:15:22 PM 31.4231 -96.0378 348° North 413 475 28,500 1,500 Climbing Fort Worth Center
Wed 03:16:22 PM 31.5381 -96.0653 348° North 413 475 30,000 1,450 Climbing Fort Worth Center
Wed 03:17:22 PM 31.6511 -96.0906 349° North 413 475 31,400 1,450 Climbing Fort Worth Center
Wed 03:18:22 PM 31.7661 -96.1183 348° North 417 480 32,900 1,500 Climbing Fort Worth Center
Wed 03:19:22 PM 31.8750 -96.1436 349° North 405 466 34,400 1,300 Climbing Fort Worth Center
Wed 03:20:22 PM 31.9900 -96.1667 350° North 400 460 35,500 1,050 Climbing Fort Worth Center
Wed 03:21:22 PM 32.1050 -96.1725 358° North 406 467 36,500 750 Climbing Fort Worth Center
Wed 03:22:22 PM 32.2197 -96.1758 359° North 406 467 37,000 250 Climbing Fort Worth Center
Wed 03:23:22 PM 32.3389 -96.1814 358° North 417 480 37,000  Level Fort Worth Center
Wed 03:24:22 PM 32.4558 -96.1872 358° North 449 517 37,000  Level Fort Worth Center
Wed 03:25:22 PM 32.6019 -96.1928 358° North 468 539 37,000  Level Fort Worth Center
Wed 03:26:22 PM 32.7272 -96.1983 358° North 483 556 37,000  Level Fort Worth Center
Wed 03:27:22 PM 32.8819 -96.2039 358° North 494 568 37,000  Level Fort Worth Center
Wed 03:28:22 PM 33.0092 -96.2094 358° North 504 580 37,000  Level Fort Worth Center
Wed 03:29:22 PM 33.1681 -96.2172 358° North 511 588 37,000  Level Fort Worth Center
Wed 03:30:22 PM 33.2911 -96.2231 358° North 511 588 37,000  Level Fort Worth Center
Wed 03:31:22 PM 33.4478 -96.2308 358° North 511 588 37,000  Level Fort Worth Center
Wed 03:32:22 PM 33.5731 -96.2317 360° North 499 574 37,000  Level Fort Worth Center
Wed 03:33:22 PM 33.7275 -96.2322 360° North 494 568 37,000  Level Fort Worth Center
Wed 03:34:22 PM 33.8611 -96.2353 359° North 494 568 37,000  Level Fort Worth Center
Wed 03:35:22 PM 33.9967 -96.2361 360° North 489 563 37,000  Level Fort Worth Center
Wed 03:36:22 PM 34.1344 -96.2342 North 489 563 37,000  Level Fort Worth Center
Wed 03:37:22 PM 34.2722 -96.2347 360° North 489 563 37,000  Level Fort Worth Center
Wed 03:38:22 PM 34.4119 -96.2331 North 494 568 37,000  Level Fort Worth Center
Wed 03:39:22 PM 34.5517 -96.2311 North 494 568 37,000  Level Fort Worth Center
Wed 03:40:22 PM 34.6894 -96.2317 360° North 494 568 37,000  Level Fort Worth Center
Wed 03:41:22 PM 34.8250 -96.2297 North 494 568 37,000  Level Fort Worth Center
Wed 03:42:22 PM 34.9647 -96.2303 360° North 494 568 37,000  Level Fort Worth Center
Wed 03:44:36 PM 35.2603 -96.2261 North 494 568 37,000  Level Kansas City Center
Wed 03:45:38 PM 35.3956 -96.2253 360° North 491 565 37,000  Level Kansas City Center
Wed 03:46:40 PM 35.5311 -96.2253 360° North 489 563 37,000  Level Kansas City Center
Wed 03:47:42 PM 35.6944 -96.2242 360° North 490 564 37,000  Level Kansas City Center
Wed 03:48:44 PM 35.8158 -96.2231 360° North 487 560 37,000  Level Kansas City Center
Wed 03:49:46 PM 35.9514 -96.2233 360° North 486 559 37,000  Level Kansas City Center
Wed 03:50:48 PM 36.1144 -96.2236 360° North 485 558 37,000  Level Kansas City Center
Wed 03:51:50 PM 36.2494 -96.2236 360° North 483 556 37,000  Level Kansas City Center
Wed 03:52:52 PM 36.3833 -96.2228 360° North 479 551 37,000  Level Kansas City Center
Wed 03:53:54 PM 36.5175 -96.2236 360° North 478 550 37,000  Level Kansas City Center
Wed 03:54:56 PM 36.6508 -96.2231 360° North 476 548 37,000  Level Kansas City Center
Wed 03:55:58 PM 36.7856 -96.2211 North 478 550 37,000  Level Kansas City Center
Wed 03:57:00 PM 36.9189 -96.2219 360° North 478 550 37,000  Level Kansas City Center
Wed 03:58:02 PM 37.0775 -96.2253 359° North 474 545 37,000  Level Kansas City Center
Wed 03:59:04 PM 37.2089 -96.2272 359° North 472 543 37,000  Level Kansas City Center
Wed 04:00:06 PM 37.3378 -96.2214 North 464 534 37,000  Level Kansas City Center
Wed 04:01:09 PM 37.4661 -96.2192 North 460 529 37,000  Level Kansas City Center
Wed 04:02:11 PM 37.5975 -96.2183 360° North 466 536 37,000  Level Kansas City Center
Wed 04:03:13 PM 37.7222 -96.2181 360° North 475 547 37,000  Level Kansas City Center
Wed 04:04:15 PM 37.8803 -96.2169 360° North 474 545 37,000  Level Kansas City Center
Wed 04:05:17 PM 38.0117 -96.2158 360° North 473 544 37,000  Level Kansas City Center
Wed 04:06:19 PM 38.1428 -96.2164 360° North 472 543 37,000  Level Kansas City Center
Wed 04:07:21 PM 38.2744 -96.2167 360° North 463 533 37,000 -290 Level Kansas City Center
Wed 04:08:23 PM 38.4200 -96.2153 360° North 466 536 36,400 -484 Descending Kansas City Center
Wed 04:09:25 PM 38.5439 -96.2150 360° North 462 532 36,000 -194 Descending Kansas City Center
Wed 04:10:27 PM 38.6894 -96.2139 360° North 468 539 36,000  Level Kansas City Center
Wed 04:11:29 PM 38.8164 -96.2136 360° North 472 543 36,000  Level Kansas City Center
Wed 04:12:31 PM 38.9631 -96.2131 360° North 472 543 36,000  Level Kansas City Center
Wed 04:13:33 PM 39.0872 -96.2122 360° North 467 537 36,000 -48 Level Kansas City Center
Wed 04:14:35 PM 39.2133 -96.2119 360° North 470 541 35,900 -581 Descending Kansas City Center
Wed 04:15:37 PM 39.3583 -96.2106 360° North 456 525 34,800 -968 Descending Kansas City Center
Wed 04:16:39 PM 39.4836 -96.2103 360° North 452 520 33,900 -968 Descending Kansas City Center
Wed 04:17:41 PM 39.6194 -96.2092 360° North 460 529 32,800 -968 Descending Kansas City Center
Wed 04:18:43 PM 39.7419 -96.2083 360° North 458 527 31,900 -919 Descending Kansas City Center
Wed 04:19:45 PM 39.8786 -96.2069 360° North 459 528 30,900 -1,452 Descending Kansas City Center
Wed 04:20:47 PM 40.0075 -96.2067 360° North 462 532 28,900 -2,274 Descending Kansas City Center
Wed 04:21:49 PM 40.1514 -96.2056 360° North 464 534 26,200 -2,290 Descending Kansas City Center
Wed 04:22:58 PM 40.2747 -96.1969 North 458 527 23,900 -2,378 Descending Minneapolis Center
Wed 04:23:40 PM 40.3775 -96.1639 14° North 431 496 21,800 -2,806 Descending Minneapolis Center
Wed 04:24:00 PM 40.4189 -96.1747 349° North 440 506 21,000 -2,250 Descending Minneapolis Center
Wed 04:24:28 PM 40.4669 -96.1539 18° North 422 486 20,000 -2,226 Descending Minneapolis Center
Wed 04:25:02 PM 40.5344 -96.1575 358° North 425 489 18,700 -2,557 Descending Minneapolis Center
Wed 04:25:29 PM 40.5892 -96.1375 16° North 411 473 17,400 -2,419 Descending Minneapolis Center
Wed 04:26:04 PM 40.6461 -96.1406 358° North 411 473 16,200 -2,361 Descending Minneapolis Center
Wed 04:26:30 PM 40.6994 -96.1253 12° North 397 457 15,000 -2,226 Descending Minneapolis Center
Wed 04:27:06 PM 40.7544 -96.1253 360° North 398 458 13,900 -2,361 Descending Minneapolis Center
Wed 04:27:31 PM 40.8031 -96.1111 12° North 366 421 12,600 -2,323 Descending Minneapolis Center
Wed 04:28:08 PM 40.8533 -96.1111 360° North 372 428 11,500 -1,881 Descending Minneapolis Center
Wed 04:28:38 PM 40.9089 -96.0992 North 340 391 10,500 -1,355 Descending Minneapolis Center
Wed 04:29:10 PM 40.9436 -96.0983 North 341 392 10,100 -1,254 Descending Minneapolis Center
Wed 04:29:45 PM 41.0025 -96.0886 North 297 342 9,100 -1,645 Descending Minneapolis Center
Wed 04:30:12 PM 41.0436 -96.0828 North 314 361 8,400 -1,600 Descending Minneapolis Center
Wed 04:30:45 PM 41.0875 -96.0764 North 297 342 7,500 -1,452 Descending Minneapolis Center
Wed 04:31:14 PM 41.1242 -96.0736 North 301 346 6,900 -1,343 Descending Minneapolis Center
Wed 04:31:52 PM 41.1733 -96.0775 357° North 284 327 6,000 -968 Descending Minneapolis Center
Wed 04:32:16 PM 41.2044 -96.0769 North 294 338 5,900 -387 Descending Minneapolis Center
Wed 04:32:54 PM 41.2469 -96.0858 351° North 249 287 5,600 -871 Descending Minneapolis Center
Wed 04:33:18 PM 41.2750 -96.0839 North 275 316 5,000 -1,500 Descending Minneapolis Center
Wed 04:33:54 PM 41.3125 -96.0619 24° Northeast 241 277 4,100 -968 Descending Minneapolis Center
Wed 04:34:20 PM 41.3228 -96.0375 61° Northeast 250 288 4,000 -231 Descending Minneapolis Center

Login

Don't have an account? Register now (free) for customized features, flight alerts, and more!